Aktualne dane pomiarowe

Uwaga, wersja testowa! Automatyczne pobieranie danych za pomocą narzędzi lub skryptów to umożliwiających jest zabronione.

Dane meteo z obszaru Polski uzyskane na podstawie depesz SYNOP pobieranych co godzinę z NWS. Najedź myszką na symbol przedstawiony w tabeli, aby uzyskać informacje co do jego znaczenia. Prosimy pamiętać, że to testowa wersja strony, która jeszcze nie jest ukończona. Stworzono również jest krótki FAQ dotyczący korzystania z tej podstrony Anomalie temperatury w chwili obecnej odniesione są do okresu referencyjnego 1951-2016. Okres ten będzie później zmieniony na 1981-2010. Kliknij ikonę aby pobrać plik CSV. Kliknij ikonę aby wygenerować mapę synoptyczną dla danego terminu.

Wybierz Datę:    

        

Łask (12454)

Dane terminowe dla wybranej stacji. Kliknij datę, aby otrzymać dane z tego terminu dla wszystkich stacji.

TemperaturaZachmurzenieWiatrCiśnienieOpadyPogoda
 Data t td wb tx tn tg rh  Nt Nl Cl Cm Ch ws wd g1 g2 wx mslp ppp ch 24h 12h t ww ww w1 w2  
2019-07-07 23:00:00 13.2 7.0 9.5--- 6665.0wx-5wx---1010.7 988.0 0.8---------
2019-07-07 22:00:00 14.2 6.9 10.0--- 6165.0wx-3wx---1010.4 987.8 1.2---------
2019-07-07 21:00:00 14.6 6.7 10.1--- 5965.0wxwxwx4wx---1009.9 987.3 1.0---------
2019-07-07 20:00:00 15.2 6.0 10.0--- 5465.0wxwxwx5wx---1009.8 987.2 1.8---------
2019-07-07 19:00:00 15.7 5.9 10.2--- 5265.0wxwxwx5wx---1009.1 986.6 1.2---------
2019-07-07 18:00:00 16.2 5.8 10.4 20.7 12.4- 5065.0wx-5wx---1008.9 986.4 1.0- 0.612------
2019-07-07 17:00:00 17.0 5.2 10.6--- 4665.0wx-7wx-13-1007.9 985.5 0.1---------
2019-07-07 16:00:00 17.9 4.6 10.8--- 4165.0wxwxwxwx7wx-15-1007.7 985.4 -0.2---------
2019-07-07 15:00:00 19.4 4.1 11.3--- 3665.0wxwxwxwx10wx-15-1007.6 985.4 0.0---------
2019-07-07 14:00:00 19.9 5.8 12.2--- 4065.0wxwxwxwx8wx---1007.5 985.4 0.1---------
2019-07-07 13:00:00 19.5 5.7 12.0--- 4065.0wxwxwxwx8wx-13-1007.8 985.6 0.5---------
2019-07-07 12:00:00 19.5 5.7 12.0--- 4060.0wxwxwxwx9wx1415-1007.6 985.4 0.3- 0.66------
2019-07-07 11:00:00 17.7 6.9 11.6--- 4960.0wxwxwxwx8wx---1007.5 985.2 0.5---------
2019-07-07 10:00:00 16.3 8.1 11.5--- 5855.0wxwxwxwx8wx---1007.5 985.1 0.5---------
2019-07-07 09:00:00 14.3 10.1 11.6--- 7645.0wxwxwxwxwx7wx---1007.6 985.0 0.5---------
2019-07-07 08:00:00 13.7 10.7 11.7--- 8240.0wxwxwxwx7wx---1007.3 984.7 0.8---wx-w1w2--
2019-07-07 07:00:00 12.7 11.7 12.0--- 9420.0wxwxwx5wx---1007.3 984.6 1.0---wx-w1w2--
2019-07-07 06:00:00 12.4 11.4 11.7 21.1 12.4 12 9430.0wxwxwx5wx---1007.2 984.5 1.4 2.9 3.012wx-w1w2--
2019-07-07 05:00:00 14.4 13.4 13.7--- 9430.0wxwxwx7wx---1006.4 983.9 0.4---wx-w1w2--
2019-07-07 04:00:00 14.9 14.1 14.3--- 9515.0wxwxwx4wx---1006.0 983.6 -0.2---wx-w1w2--
2019-07-07 03:00:00 13.5 13.5 13.5--- 10012.0wx-1wx---1005.6 983.1 -1.2---------
2019-07-07 02:00:00 13.5 13.5 13.5--- 10014.0wx-1wx---1006.1 983.6 -1.0---------
2019-07-07 01:00:00 13.5 13.5 13.5--- 1000.5wx-2wx---1006.3 983.8 -0.3---------
2019-07-07 00:00:00 14.5 14.2 14.3--- 987.0wx-1wx---1006.8 984.3 0.6- 1.06------
2019-07-06 23:00:00 14.9 14.3 14.4--- 9626.0wx-2wx---1007.0 984.5 0.6---------
2019-07-06 22:00:00 16.4 12.9 14.1--- 8026.0wx-3wx---1006.4 984.1 1.0---------
2019-07-06 21:00:00 16.9 12.5 14.0--- 7540.0wx-wx5wx---1006.0 983.7 0.4---wx-w1w2--
2019-07-06 20:00:00 17.8 12.1 14.1--- 6930.0wx-wx5wx---1006.1 983.9 0.3---------
2019-07-06 19:00:00 19.8 11.3 14.6--- 5860.0wx-wx3wx---1005.1 983.1 -0.9---------
2019-07-06 18:00:00 21.1 11.2 15.1 24.7 15.4- 5360.0wx-wx4wx---1005.2 983.3 -1.2--12------
2019-07-06 17:00:00 22.7 10.8 15.6--- 4760.0wx-wx3wx---1005.4 983.6 -1.8---------
2019-07-06 16:00:00 23.5 10.2 15.6--- 4340.0wxwxwxwx2wx---1005.8 984.0 -2.0---------
2019-07-06 15:00:00 23.8 9.7 15.6--- 4140.0wxwxwxwx3wx---1006.3 984.5 -1.9---------
2019-07-06 14:00:00 23.9 9.8 15.6--- 4140.0wxwxwxwx4wx---1007.2 985.4 -1.6---------
2019-07-06 13:00:00 22.9 9.9 15.3--- 4465.0wxwxwxwx4wx---1007.9 986.0 -1.4---------
2019-07-06 12:00:00 22.3 10.4 15.2--- 4740.0wxwxwxwx6wx---1008.3 986.4 -1.4--6------
2019-07-06 11:00:00 21.5 10.0 14.7--- 4840.0wxwxwx5wx-12-1008.9 986.9 -1.3---------
2019-07-06 10:00:00 20.5 10.3 14.4--- 5235.0wxwxwxwx6wx---1009.5 987.4 -1.4---------
2019-07-06 09:00:00 20.8 10.0 14.4--- 5035.0wxwxwxwx7wx---1009.9 987.8 -1.3---------
2019-07-06 08:00:00 19.1 11.3 14.3--- 6135.0wxwxwxwxwx5wx---1010.4 988.2 -0.9---------
2019-07-06 07:00:00 17.1 11.9 13.8--- 7135.0wxwxwxwx3wx---1011.1 988.7 -0.6---------
2019-07-06 06:00:00 15.5 11.7 13.0 17.7 11.6- 7835.0wxwxwx3wx---1011.5 989.0 -0.5 0.1 0.012------
2019-07-06 05:00:00 14.5 11.4 12.4--- 8230.0wxwxwx2wx---1011.7 989.1 -0.4---------
2019-07-06 04:00:00 14.0 11.0 12.0--- 8230.0wxwxwx1wx---1012.0 989.3 -0.4---------
2019-07-06 03:00:00 13.9 10.7 11.8--- 8165.0wx-1wx---1012.2 989.5 -0.5---------
2019-07-06 02:00:00 13.9 10.5 11.7--- 8060.0wx-3wx---1012.2 989.6 -0.5---------
2019-07-06 01:00:00 12.6 9.5 10.6--- 8155.0wx-2wx---1012.5 989.7 -0.2---------
2019-07-06 00:00:00 12.0 9.2 10.2--- 8350.0wx-1wx---1012.8 990.0 0.0- 0.06------
1.6 ms

 

Print Friendly, PDF & Email